Time;durP1;ratioP1;P1;durP2;ratioP2;P2;SDS_P1;SDS_P2;PMS_P1;PMS_P2;Temp;Humidity;BMP_temperature;BMP_pressure;BME280_temperature;BME280_humidity;BME280_pressure;Samples;Min_cycle;Max_cycle;Signal;HPM_P1;HPM_P2
2023/04/15 00:02:17;;;;;;;43.20;2.20;;;;;;;21.73;58.72;98239.06;7315191;19;129276;-33
2023/04/15 00:04:46;;;;;;;36.85;2.10;;;;;;;21.70;57.58;98240.22;7315980;19;129189;-36
2023/04/15 00:07:12;;;;;;;47.10;2.55;;;;;;;21.66;58.50;98233.72;7309688;19;129055;-37
2023/04/15 00:09:38;;;;;;;60.40;3.03;;;;;;;21.70;58.45;98227.13;7313637;19;130520;-38
2023/04/15 00:12:04;;;;;;;64.68;3.22;;;;;;;21.57;58.25;98211.19;7312451;19;130090;-37
2023/04/15 00:14:30;;;;;;;152.57;7.85;;;;;;;21.68;58.17;98234.34;7310275;19;132215;-34
2023/04/15 00:16:56;;;;;;;68.40;3.65;;;;;;;21.75;58.30;98235.28;7304610;19;130997;-34
2023/04/15 00:19:23;;;;;;;43.40;2.20;;;;;;;21.68;58.31;98212.63;7313986;19;130272;-36
2023/04/15 00:21:48;;;;;;;59.05;2.85;;;;;;;21.75;57.39;98229.25;7312752;19;129034;-34
2023/04/15 00:24:14;;;;;;;34.45;1.75;;;;;;;21.73;58.33;98226.78;7314633;19;129587;-37
2023/04/15 00:26:39;;;;;;;81.13;4.27;;;;;;;21.75;58.63;98227.44;7310263;19;130734;-42
2023/04/15 00:29:05;;;;;;;20.10;1.50;;;;;;;21.75;57.75;98224.81;7312754;19;131103;-31
2023/04/15 00:31:31;;;;;;;52.97;2.55;;;;;;;21.74;57.84;98231.03;7313358;19;129168;-35
2023/04/15 00:33:56;;;;;;;64.65;3.20;;;;;;;21.73;57.85;98226.78;7313188;19;129550;-35
2023/04/15 00:36:22;;;;;;;29.20;1.67;;;;;;;21.75;58.26;98229.25;7312982;19;129620;-39
2023/04/15 00:38:47;;;;;;;64.63;3.03;;;;;;;21.72;57.90;98225.16;7310703;19;129605;-31
2023/04/15 00:41:13;;;;;;;46.67;2.43;;;;;;;21.72;57.69;98225.16;7313681;19;129542;-34
2023/04/15 00:43:38;;;;;;;47.03;2.37;;;;;;;21.72;57.90;98225.16;7309668;19;129603;-34
2023/04/15 00:46:05;;;;;;;80.80;4.20;;;;;;;21.76;57.83;98229.09;7309351;19;129336;-38
2023/04/15 00:48:31;;;;;;;68.80;3.45;;;;;;;21.60;57.62;98210.84;7311233;19;129291;-38
2023/04/15 00:50:56;;;;;;;42.90;2.20;;;;;;;21.67;58.38;98217.03;7314454;19;129228;-37
2023/04/15 00:53:22;;;;;;;33.05;1.73;;;;;;;21.72;58.29;98216.50;7314825;19;129086;-31
2023/04/15 00:55:48;;;;;;;46.38;2.38;;;;;;;21.71;57.96;98218.31;7309010;19;129523;-37
2023/04/15 00:58:14;;;;;;;51.10;2.53;;;;;;;21.70;58.69;98215.88;7312071;19;129576;-29
2023/04/15 01:00:40;;;;;;;34.53;1.60;;;;;;;21.62;58.30;98203.66;7311970;19;129356;-31
2023/04/15 01:03:05;;;;;;;30.83;1.60;;;;;;;21.66;58.29;98204.94;7312872;19;129412;-34
2023/04/15 01:05:31;;;;;;;31.03;1.77;;;;;;;21.70;58.55;98203.59;7311679;19;129713;-38
2023/04/15 01:07:56;;;;;;;72.97;3.58;;;;;;;21.71;58.06;98202.63;7309135;19;131982;-33
2023/04/15 01:10:22;;;;;;;74.25;3.83;;;;;;;21.69;57.97;98199.34;7314616;19;129563;-33
2023/04/15 01:12:48;;;;;;;55.92;2.97;;;;;;;21.55;58.55;98181.78;7311164;19;129603;-30
2023/04/15 01:15:13;;;;;;;118.93;6.47;;;;;;;21.65;57.96;98195.44;7310514;19;129553;-39
2023/04/15 01:17:39;;;;;;;50.53;2.35;;;;;;;21.51;57.48;98180.53;7312371;19;129647;-37
2023/04/15 01:20:05;;;;;;;31.70;1.60;;;;;;;21.60;58.10;98195.16;7313092;19;129107;-33
2023/04/15 01:22:33;;;;;;;42.38;2.15;;;;;;;21.51;58.45;98190.97;7311601;19;129069;-36
2023/04/15 01:25:08;;;;;;;60.13;2.97;;;;;;;21.44;58.73;98176.13;7311411;19;129036;-36
2023/04/15 01:27:35;;;;;;;66.20;3.17;;;;;;;21.54;57.96;98205.50;7309906;19;131728;-38
2023/04/15 01:30:01;;;;;;;50.10;2.55;;;;;;;21.51;57.76;98198.81;7314018;19;129087;-37
2023/04/15 01:32:26;;;;;;;45.27;2.43;;;;;;;21.50;57.92;98194.56;7313017;19;130135;-33
2023/04/15 01:34:52;;;;;;;45.42;2.40;;;;;;;21.53;58.40;98189.00;7312234;19;130248;-37
2023/04/15 01:37:17;;;;;;;56.80;2.70;;;;;;;21.53;58.45;98191.63;7308163;19;129958;-34
2023/04/15 01:39:43;;;;;;;43.28;2.22;;;;;;;21.51;57.86;98190.97;7313234;19;129346;-35
2023/04/15 01:42:09;;;;;;;35.40;1.83;;;;;;;21.52;58.78;98187.38;7311410;19;129194;-32
2023/04/15 01:44:34;;;;;;;40.13;1.88;;;;;;;21.53;58.11;98183.78;7311929;19;129128;-38
2023/04/15 01:46:59;;;;;;;56.13;2.87;;;;;;;21.52;58.25;98187.38;7311051;19;130844;-34
2023/04/15 01:49:25;;;;;;;31.45;1.58;;;;;;;21.53;58.66;98189.00;7311522;19;129606;-33
2023/04/15 01:51:50;;;;;;;45.00;2.40;;;;;;;21.54;58.04;98190.63;7311511;19;129322;-29
2023/04/15 01:54:15;;;;;;;52.53;2.50;;;;;;;21.56;59.12;98188.66;7310488;19;129010;-32
2023/04/15 01:56:41;;;;;;;58.42;3.05;;;;;;;21.53;58.04;98178.56;7309278;19;130001;-37
2023/04/15 01:59:06;;;;;;;32.50;1.63;;;;;;;21.53;58.13;98175.94;7311271;19;129129;-32
2023/04/15 02:01:31;;;;;;;52.90;2.77;;;;;;;21.51;58.17;98164.00;7309905;19;129222;-28
2023/04/15 02:03:57;;;;;;;52.27;2.47;;;;;;;21.53;57.84;98170.72;7309257;19;131431;-41
2023/04/15 02:06:23;;;;;;;60.13;3.03;;;;;;;21.39;58.68;98150.53;7310578;19;129835;-35
2023/04/15 02:08:48;;;;;;;54.83;2.77;;;;;;;21.48;58.62;98170.41;7306831;19;129512;-36
2023/04/15 02:11:14;;;;;;;66.88;3.45;;;;;;;21.50;58.34;98163.19;7310687;19;129553;-34
2023/04/15 02:13:39;;;;;;;53.85;2.58;;;;;;;21.43;58.69;98154.44;7309021;19;130958;-37
2023/04/15 02:16:17;;;;;;;58.67;2.77;;;;;;;21.50;58.98;98165.00;7308942;19;129688;-32
2023/04/15 02:18:46;;;;;;;41.83;2.08;;;;;;;21.51;59.29;98149.16;7308399;19;128985;-35
2023/04/15 02:21:11;;;;;;;62.17;3.17;;;;;;;21.52;57.95;98161.22;7306264;19;129499;-34
2023/04/15 02:23:37;;;;;;;31.00;1.60;;;;;;;21.51;58.45;98159.59;7306924;19;129676;-29
2023/04/15 02:26:02;;;;;;;54.77;2.63;;;;;;;21.53;58.17;98141.94;7308373;19;130323;-34
2023/04/15 02:28:27;;;;;;;36.45;1.85;;;;;;;21.50;58.16;98147.50;7309151;19;129289;-30
2023/04/15 02:30:55;;;;;;;39.13;2.10;;;;;;;21.51;58.37;98159.59;7309335;19;129575;-33
2023/04/15 02:33:21;;;;;;;55.95;2.67;;;;;;;21.52;58.56;98149.94;7311082;19;130307;-35
2023/04/15 02:35:46;;;;;;;66.40;3.13;;;;;;;21.49;58.54;98147.66;7308911;19;130367;-34
2023/04/15 02:38:13;;;;;;;35.17;1.83;;;;;;;21.53;58.51;98149.78;7309238;19;129678;-33
2023/04/15 02:40:38;;;;;;;37.78;1.85;;;;;;;21.55;58.36;98145.16;7305363;19;129311;-39
2023/04/15 02:43:05;;;;;;;18.60;1.00;;;;;;;21.51;58.78;98138.69;7310296;19;129504;-32
2023/04/15 02:45:31;;;;;;;76.40;3.95;;;;;;;21.55;58.91;98145.16;7307338;19;130342;-33
2023/04/15 02:47:56;;;;;;;54.08;2.83;;;;;;;21.59;58.62;98153.50;7306597;19;128898;-40
2023/04/15 02:50:22;;;;;;;37.72;2.05;;;;;;;21.58;57.59;98164.94;7310587;19;128727;-27
2023/04/15 02:52:48;;;;;;;72.20;3.50;;;;;;;21.56;58.23;98159.91;7309289;19;129948;-31
2023/04/15 02:55:14;;;;;;;117.28;6.10;;;;;;;21.55;58.88;98163.47;7309573;19;129467;-34
2023/04/15 02:57:40;;;;;;;43.10;2.20;;;;;;;21.60;58.06;98147.28;7305075;19;129811;-36
2023/04/15 03:00:08;;;;;;;57.07;2.97;;;;;;;21.62;58.29;98151.34;7309279;19;131607;-37
2023/04/15 03:02:38;;;;;;;58.33;2.80;;;;;;;21.60;58.48;98150.69;7309126;19;130056;-34
2023/04/15 03:05:04;;;;;;;108.85;5.50;;;;;;;21.61;58.66;98141.06;7308414;19;130452;-44
2023/04/15 03:07:30;;;;;;;;;;;;;;;21.65;59.04;98143.13;7316602;19;129490;-41
2023/04/15 03:09:55;;;;;;;46.85;2.40;;;;;;;21.65;57.97;98150.19;7316091;19;130188;-39
2023/04/15 03:12:21;;;;;;;67.75;3.38;;;;;;;21.65;58.56;98140.53;7315451;19;130174;-34
2023/04/15 03:14:46;;;;;;;48.28;2.38;;;;;;;21.70;57.01;98140.81;7316318;19;130389;-38
2023/04/15 03:17:12;;;;;;;28.23;1.53;;;;;;;21.70;58.23;98148.66;7313429;19;129640;-37
2023/04/15 03:19:37;;;;;;;65.45;3.38;;;;;;;21.72;58.08;98145.88;7315624;19;128995;-40
2023/04/15 03:22:02;;;;;;;67.07;3.13;;;;;;;21.74;57.58;98130.81;7316933;19;129282;-31
2023/04/15 03:24:29;;;;;;;33.10;1.60;;;;;;;21.63;57.31;98123.41;7316143;19;129789;-41
2023/04/15 03:26:55;;;;;;;81.03;4.30;;;;;;;21.78;57.30;98135.53;7313493;19;130567;-37
2023/04/15 03:29:20;;;;;;;45.00;2.20;;;;;;;21.73;57.23;98137.84;7312194;19;129898;-38
2023/04/15 03:31:45;;;;;;;65.17;3.07;;;;;;;21.79;57.17;98134.56;7316957;19;129715;-35
2023/04/15 03:34:11;;;;;;;81.50;4.20;;;;;;;21.80;57.53;98138.81;7315198;19;129855;-33
2023/04/15 03:36:36;;;;;;;38.33;1.98;;;;;;;21.78;57.42;98134.75;7314315;19;129786;-38
2023/04/15 03:39:02;;;;;;;50.17;2.47;;;;;;;21.51;57.18;98136.06;7313588;19;129003;-37
2023/04/15 03:41:27;;;;;;;66.15;3.00;;;;;;;21.26;57.51;98126.75;7316186;19;129136;-34
2023/04/15 03:43:53;;;;;;;50.78;2.60;;;;;;;21.24;57.20;98120.88;7314469;19;131279;-36
2023/04/15 03:46:18;;;;;;;43.40;2.17;;;;;;;21.21;57.11;98105.53;7314611;19;129209;-35
2023/04/15 03:48:44;;;;;;;49.88;2.63;;;;;;;21.44;56.66;98121.22;7313766;19;129465;-33
2023/04/15 03:51:09;;;;;;;60.05;2.85;;;;;;;21.57;56.50;98122.28;7316147;19;130117;-43
2023/04/15 03:53:35;;;;;;;35.10;1.70;;;;;;;21.62;56.58;98117.34;7315137;19;130511;-30
2023/04/15 03:56:01;;;;;;;40.97;2.03;;;;;;;21.71;56.08;98108.47;7316096;19;128966;-32
2023/04/15 03:58:26;;;;;;;55.00;2.43;;;;;;;21.84;56.22;98108.69;7312678;19;129161;-33
2023/04/15 04:00:52;;;;;;;65.87;3.23;;;;;;;21.91;55.53;98120.06;7313888;19;129013;-30
2023/04/15 04:03:17;;;;;;;60.85;3.17;;;;;;;21.95;55.85;98116.09;7312470;19;131190;-37
2023/04/15 04:05:43;;;;;;;38.08;1.83;;;;;;;22.03;55.37;98117.03;7312878;19;129270;-32
2023/04/15 04:08:10;;;;;;;57.95;2.78;;;;;;;22.03;55.93;98109.19;7309882;19;129154;-38
2023/04/15 04:10:35;;;;;;;42.20;2.05;;;;;;;21.98;55.84;98120.97;7313676;19;130729;-38
2023/04/15 04:13:00;;;;;;;41.95;2.13;;;;;;;21.92;55.91;98128.72;7313903;19;129361;-39
2023/04/15 04:15:26;;;;;;;63.40;3.20;;;;;;;21.76;55.66;98110.53;7312582;19;129424;-30
2023/04/15 04:17:51;;;;;;;73.00;3.60;;;;;;;21.88;56.27;98125.66;7310772;19;128909;-47
2023/04/15 04:20:17;;;;;;;23.67;1.25;;;;;;;21.93;55.61;98131.16;7312456;19;129553;-35
2023/04/15 04:22:42;;;;;;;71.50;3.60;;;;;;;22.00;55.23;98123.41;7310975;19;130049;-31
2023/04/15 04:25:09;;;;;;;98.65;5.35;;;;;;;22.04;55.63;98122.09;7314267;19;129946;-39
2023/04/15 04:27:35;;;;;;;102.85;5.07;;;;;;;22.11;55.25;98119.56;7309566;19;131301;-41
2023/04/15 04:30:00;;;;;;;46.70;2.17;;;;;;;22.19;55.33;98119.47;7315401;19;131095;-32
2023/04/15 04:32:26;;;;;;;70.00;3.60;;;;;;;22.26;55.08;98120.41;7312104;19;130549;-33
2023/04/15 04:34:51;;;;;;;54.87;2.70;;;;;;;22.25;54.74;98118.75;7314091;19;129467;-32
2023/04/15 04:37:17;;;;;;;124.40;6.40;;;;;;;22.26;54.76;98125.63;7304475;19;129769;-34
2023/04/15 04:39:42;;;;;;;42.50;2.08;;;;;;;22.26;55.42;98112.53;7313163;19;129761;-38
2023/04/15 04:42:08;;;;;;;21.33;1.10;;;;;;;22.21;55.09;98125.34;7313592;19;131417;-43
2023/04/15 04:44:33;;;;;;;56.72;2.80;;;;;;;22.13;54.98;98128.06;7311308;19;129485;-35
2023/04/15 04:46:58;;;;;;;60.43;3.00;;;;;;;22.06;55.59;98127.13;7313353;19;129529;-32
2023/04/15 04:49:24;;;;;;;54.60;2.65;;;;;;;21.95;55.85;98123.97;7313493;19;130482;-39
2023/04/15 04:51:49;;;;;;;66.78;3.63;;;;;;;21.84;56.22;98134.03;7311445;19;131768;-34
2023/04/15 04:54:15;;;;;;;69.70;3.37;;;;;;;21.77;55.90;98133.94;7315547;19;129195;-30
2023/04/15 04:56:40;;;;;;;71.68;3.55;;;;;;;21.63;56.75;98132.06;7312604;19;128863;-36
2023/04/15 04:59:06;;;;;;;29.92;1.48;;;;;;;21.62;57.24;98142.66;7314457;19;129636;-43
2023/04/15 05:01:32;;;;;;;39.13;1.87;;;;;;;21.55;57.22;98134.72;7312067;19;130302;-34
2023/04/15 05:03:57;;;;;;;63.37;2.93;;;;;;;21.50;56.80;98134.41;7311883;19;130543;-30
2023/04/15 05:06:22;;;;;;;65.13;3.40;;;;;;;21.49;57.21;98135.41;7306588;19;129687;-41
2023/04/15 05:08:48;;;;;;;46.17;2.17;;;;;;;21.58;57.33;98139.63;7311177;19;129566;-30
2023/04/15 05:11:13;;;;;;;55.53;2.97;;;;;;;21.64;57.31;98133.69;7311167;19;129108;-38
2023/04/15 05:13:38;;;;;;;62.33;2.88;;;;;;;21.75;56.60;98138.47;7312154;19;130131;-37
2023/04/15 05:16:05;;;;;;;30.98;1.50;;;;;;;21.89;56.15;98143.00;7312770;19;129164;-33
2023/04/15 05:18:30;;;;;;;36.42;1.70;;;;;;;22.01;56.17;98142.56;7308981;19;130933;-30
2023/04/15 05:20:56;;;;;;;47.13;2.30;;;;;;;22.10;55.61;98139.69;7313790;19;130458;-34
2023/04/15 05:23:21;;;;;;;112.15;5.72;;;;;;;22.13;55.89;98143.75;7312395;19;129923;-36
2023/04/15 05:25:47;;;;;;;57.45;2.90;;;;;;;22.21;55.68;98146.31;7310998;19;131619;-33
2023/04/15 05:28:12;;;;;;;34.07;1.70;;;;;;;22.11;55.11;98130.03;7306394;19;129585;-40
2023/04/15 05:30:38;;;;;;;52.60;2.53;;;;;;;22.08;55.14;98146.09;7309210;19;129764;-42
2023/04/15 05:33:03;;;;;;;79.75;3.85;;;;;;;22.06;55.64;98148.06;7311636;19;129228;-39
2023/04/15 05:35:29;;;;;;;90.22;4.78;;;;;;;21.96;55.60;98154.34;7308520;19;129005;-35
2023/04/15 05:37:54;;;;;;;46.00;2.40;;;;;;;21.90;56.11;98149.84;7307835;19;129160;-32
2023/04/15 05:40:20;;;;;;;56.90;2.73;;;;;;;21.82;56.29;98155.16;7310821;19;129399;-39
2023/04/15 05:42:45;;;;;;;67.38;3.35;;;;;;;21.62;56.46;98134.81;7310106;19;129240;-32
2023/04/15 05:45:10;;;;;;;122.68;6.53;;;;;;;21.64;56.73;98154.59;7308245;19;129422;-36
2023/04/15 05:47:36;;;;;;;46.05;2.25;;;;;;;21.60;57.12;98170.81;7306787;19;130566;-30
2023/04/15 05:50:02;;;;;;;73.22;3.40;;;;;;;21.56;57.32;98172.16;7308368;19;129561;-31
2023/04/15 05:52:28;;;;;;;71.85;3.70;;;;;;;21.57;57.46;98171.16;7309143;19;130075;-34
2023/04/15 05:54:53;;;;;;;63.30;3.40;;;;;;;21.53;56.87;98162.88;7306564;19;129524;-38
2023/04/15 05:57:18;;;;;;;34.67;1.85;;;;;;;21.75;56.47;98180.34;7307882;19;131692;-37
2023/04/15 05:59:44;;;;;;;132.30;6.68;;;;;;;21.76;56.45;98163.72;7306412;19;129578;-39
2023/04/15 06:02:09;;;;;;;74.38;3.85;;;;;;;21.96;56.10;98180.53;7305495;19;129072;-35
2023/04/15 06:04:35;;;;;;;57.53;2.83;;;;;;;22.11;56.13;98174.53;7304236;19;128894;-39
2023/04/15 06:07:01;;;;;;;85.03;4.40;;;;;;;22.19;55.05;98187.53;7300197;19;130383;-38
2023/04/15 06:09:27;;;;;;;86.03;4.13;;;;;;;22.23;55.61;98183.59;7305303;19;130344;-39
2023/04/15 06:11:53;;;;;;;56.38;2.78;;;;;;;22.26;54.98;98185.84;7309621;19;129981;-39
2023/04/15 06:14:18;;;;;;;36.72;1.85;;;;;;;22.22;55.26;98195.03;7307966;19;129121;-35
2023/04/15 06:16:44;;;;;;;118.88;5.80;;;;;;;22.09;55.52;98172.09;7304599;19;130951;-39
2023/04/15 06:19:09;;;;;;;117.77;5.80;;;;;;;22.12;55.39;98199.69;7306635;19;129170;-37
2023/04/15 06:21:35;;;;;;;71.35;3.33;;;;;;;21.98;55.80;98176.94;7297997;19;129181;-36
2023/04/15 06:24:01;;;;;;;61.53;2.90;;;;;;;21.95;56.01;98189.38;7298864;19;129851;-38
2023/04/15 06:26:26;;;;;;;50.07;2.33;;;;;;;21.91;56.17;98192.53;7296995;19;131934;-38
2023/04/15 06:28:52;;;;;;;87.93;4.13;;;;;;;21.86;56.59;98200.09;7302644;19;131174;-38
2023/04/15 06:31:17;;;;;;;81.35;3.88;;;;;;;21.79;56.65;98202.59;7303084;19;129452;-39
2023/04/15 06:33:43;;;;;;;58.50;2.92;;;;;;;21.71;56.60;98200.00;7301750;19;129359;-37
2023/04/15 06:36:08;;;;;;;116.32;5.55;;;;;;;21.61;57.19;98202.03;7302081;19;130027;-38
2023/04/15 06:38:34;;;;;;;89.75;4.30;;;;;;;21.57;56.72;98199.91;7299010;19;130946;-39
2023/04/15 06:41:00;;;;;;;78.07;3.87;;;;;;;21.56;56.83;98209.59;7301510;19;128826;-35
2023/04/15 06:43:25;;;;;;;77.53;3.72;;;;;;;21.50;56.64;98212.88;7304453;19;129149;-35
2023/04/15 06:45:50;;;;;;;99.03;5.03;;;;;;;21.47;56.90;98209.81;7301461;19;130996;-36
2023/04/15 06:48:16;;;;;;;84.53;4.28;;;;;;;21.47;56.39;98210.59;7304015;19;129565;-38
2023/04/15 06:50:42;;;;;;;43.93;2.20;;;;;;;21.45;56.51;98204.72;7309433;19;130056;-37
2023/04/15 06:53:07;;;;;;;40.88;2.03;;;;;;;21.44;56.54;98208.34;7306655;19;129584;-39
2023/04/15 06:55:33;;;;;;;59.35;2.70;;;;;;;21.40;57.01;98209.66;7304257;19;130770;-40
2023/04/15 06:57:58;;;;;;;61.30;3.07;;;;;;;21.40;56.94;98214.88;7306150;19;130161;-38
2023/04/15 07:00:24;;;;;;;73.67;3.83;;;;;;;21.39;56.65;98217.66;7304577;19;129414;-34
2023/04/15 07:02:50;;;;;;;82.03;4.15;;;;;;;21.33;56.96;98219.19;7305923;19;129422;-37
2023/04/15 07:05:16;;;;;;;144.07;7.60;;;;;;;21.36;56.54;98226.69;7305180;19;130874;-37
2023/04/15 07:07:41;;;;;;;45.90;2.27;;;;;;;21.32;56.59;98228.00;7302818;19;132274;-39
2023/04/15 07:10:07;;;;;;;38.83;1.93;;;;;;;21.23;56.75;98221.19;7306377;19;129975;-36
2023/04/15 07:12:34;;;;;;;55.67;2.67;;;;;;;21.36;56.87;98234.53;7306170;19;130233;-38
2023/04/15 07:14:59;;;;;;;109.80;5.30;;;;;;;21.32;57.00;98233.22;7303942;19;130378;-39
2023/04/15 07:17:25;;;;;;;38.90;2.42;;;;;;;21.32;56.62;98230.63;7305961;19;130498;-36
2023/04/15 07:19:50;;;;;;;79.72;3.90;;;;;;;21.32;56.93;98238.47;7307303;19;129096;-34
2023/04/15 07:22:16;;;;;;;98.03;5.00;;;;;;;21.30;56.69;98237.00;7305733;19;129032;-37
2023/04/15 07:24:41;;;;;;;108.20;5.80;;;;;;;21.30;56.54;98250.09;7298025;19;130514;-35
2023/04/15 07:27:07;;;;;;;44.77;2.13;;;;;;;21.31;56.33;98247.28;7303940;19;131719;-37
2023/04/15 07:29:32;;;;;;;65.22;3.15;;;;;;;21.32;56.68;98248.91;7306394;19;129581;-38
2023/04/15 07:31:58;;;;;;;68.30;3.33;;;;;;;21.29;56.47;98253.66;7308330;19;129934;-37
2023/04/15 07:34:23;;;;;;;56.35;2.92;;;;;;;21.30;56.36;98261.38;7306358;19;130113;-39
2023/04/15 07:36:50;;;;;;;68.72;3.25;;;;;;;21.30;56.45;98261.38;7304159;19;130542;-37
2023/04/15 07:39:16;;;;;;;40.15;2.10;;;;;;;21.30;56.34;98258.75;7306620;19;129042;-37
2023/04/15 07:41:42;;;;;;;83.82;3.97;;;;;;;21.29;56.95;98264.94;7306776;19;130080;-36
2023/04/15 07:44:08;;;;;;;67.38;3.17;;;;;;;21.28;56.95;98262.50;7301744;19;129941;-39
2023/04/15 07:46:33;;;;;;;26.50;1.53;;;;;;;21.27;57.07;98266.91;7304321;19;131394;-39
2023/04/15 07:48:59;;;;;;;62.65;3.30;;;;;;;21.31;57.02;98262.97;7301243;19;129398;-36
2023/04/15 07:51:24;;;;;;;90.63;4.50;;;;;;;21.29;57.03;98270.16;7306838;19;129119;-38
2023/04/15 07:53:50;;;;;;;55.97;2.80;;;;;;;21.31;57.04;98267.38;7308961;19;130242;-33
2023/04/15 07:56:15;;;;;;;75.53;3.87;;;;;;;21.29;56.74;98264.94;7306575;19;130347;-35
2023/04/15 07:58:41;;;;;;;81.00;4.03;;;;;;;21.29;56.65;98267.56;7307058;19;131642;-35
2023/04/15 08:01:07;;;;;;;65.38;3.15;;;;;;;21.31;56.72;98270.00;7309796;19;130626;-35
2023/04/15 08:03:32;;;;;;;103.63;5.55;;;;;;;21.22;57.21;98263.97;7297707;19;130454;-39
2023/04/15 08:05:58;;;;;;;164.95;8.77;;;;;;;21.31;57.27;98281.28;7287789;19;132948;-33
2023/04/15 08:08:24;;;;;;;144.77;7.47;;;;;;;21.30;57.23;98281.44;7287156;19;129723;-38
2023/04/15 08:10:49;;;;;;;61.72;2.95;;;;;;;21.31;57.75;98291.75;7307969;19;130075;-40
2023/04/15 08:13:15;;;;;;;54.13;2.88;;;;;;;21.32;56.98;98293.34;7313822;19;129214;-36
2023/04/15 08:15:41;;;;;;;58.53;2.78;;;;;;;21.33;56.79;98291.56;7310269;19;130893;-34
2023/04/15 08:18:06;;;;;;;79.22;3.78;;;;;;;21.32;57.68;98293.34;7307403;19;130082;-37
2023/04/15 08:20:32;;;;;;;99.70;5.25;;;;;;;21.29;57.39;98301.53;7311465;19;129159;-36
2023/04/15 08:22:57;;;;;;;114.35;5.85;;;;;;;21.30;57.23;98299.75;7307132;19;130485;-32
2023/04/15 08:25:22;;;;;;;89.70;4.68;;;;;;;21.32;57.38;98301.19;7308519;19;130356;-34
2023/04/15 08:27:48;;;;;;;72.45;3.60;;;;;;;21.31;57.46;98307.41;7305607;19;130443;-34
2023/04/15 08:30:14;;;;;;;66.17;3.50;;;;;;;21.30;57.30;98305.81;7314140;19;129039;-36
2023/04/15 08:32:41;;;;;;;43.00;3.25;;;;;;;21.29;56.55;98305.94;7312581;19;130795;-38
2023/04/15 08:35:07;;;;;;;89.47;5.03;;;;;;;21.28;56.59;98310.38;7311275;19;130498;-33
2023/04/15 08:37:32;;;;;;;78.05;4.18;;;;;;;21.27;56.92;98313.16;7308465;19;130024;-35
2023/04/15 08:39:57;;;;;;;62.80;3.63;;;;;;;21.27;57.28;98307.94;7313050;19;129637;-35
2023/04/15 08:42:30;;;;;;;129.85;8.25;;;;;;;21.27;57.23;98306.13;7305234;19;130126;-40
2023/04/15 08:44:55;;;;;;;111.63;6.80;;;;;;;21.26;56.74;98312.34;7300963;19;130891;-39
2023/04/15 08:47:23;;;;;;;121.75;6.50;;;;;;;21.27;56.89;98313.97;7305116;19;129378;-37
2023/04/15 08:49:53;;;;;;;61.08;3.40;;;;;;;21.27;57.11;98308.72;7309673;19;130255;-41
2023/04/15 08:52:19;;;;;;;69.30;4.28;;;;;;;21.30;56.95;98321.50;7313838;19;129449;-42
2023/04/15 08:54:44;;;;;;;48.22;3.50;;;;;;;21.21;56.97;98298.97;7312779;19;129797;-41
2023/04/15 08:57:10;;;;;;;79.18;5.13;;;;;;;21.27;57.24;98316.56;7310867;19;130317;-42
2023/04/15 08:59:35;;;;;;;52.17;3.55;;;;;;;21.29;57.23;98326.84;7311143;19;130756;-39
2023/04/15 09:02:02;;;;;;;40.45;2.38;;;;;;;21.26;57.53;98320.19;7313419;19;129432;-39
2023/04/15 09:04:28;;;;;;;50.05;3.03;;;;;;;21.28;57.51;98330.47;7306643;19;130438;-40
2023/04/15 09:06:53;;;;;;;70.93;4.60;;;;;;;21.30;57.02;98339.78;7307372;19;128959;-39
2023/04/15 09:09:19;;;;;;;55.92;3.60;;;;;;;21.28;57.47;98340.91;7313160;19;129486;-39
2023/04/15 09:11:44;;;;;;;57.27;3.40;;;;;;;21.26;57.70;98335.03;7313496;19;130091;-41
2023/04/15 09:14:10;;;;;;;62.10;3.55;;;;;;;21.29;57.49;98338.13;7311903;19;131130;-37
2023/04/15 09:17:02;;;;;;;53.65;3.40;;;;;;;21.27;57.49;98347.16;7311051;19;130000;-38
2023/04/15 09:19:27;;;;;;;72.95;4.05;;;;;;;21.27;57.65;98341.91;7311094;19;129889;-39
2023/04/15 09:21:55;;;;;;;64.38;3.58;;;;;;;21.25;57.84;98347.31;7311422;19;129059;-42
2023/04/15 09:24:21;;;;;;;57.75;3.45;;;;;;;21.18;57.24;98338.50;7310053;19;130464;-39
2023/04/15 09:26:47;;;;;;;52.67;2.93;;;;;;;21.24;57.89;98352.69;7310405;19;129010;-39
2023/04/15 09:29:12;;;;;;;59.15;3.22;;;;;;;21.27;57.42;98353.16;7313499;19;129387;-42
2023/04/15 09:31:39;;;;;;;59.40;3.35;;;;;;;21.26;57.34;98359.38;7312653;19;129821;-40
2023/04/15 09:34:05;;;;;;;45.42;2.50;;;;;;;21.26;57.33;98359.38;7310296;19;131062;-39
2023/04/15 09:36:46;;;;;;;43.83;3.08;;;;;;;21.27;57.89;98355.78;7310187;19;128984;-39
2023/04/15 09:39:11;;;;;;;44.28;2.65;;;;;;;21.27;57.96;98371.47;7309749;19;129462;-40
2023/04/15 09:41:36;;;;;;;98.95;4.78;;;;;;;21.29;57.41;98369.50;7300992;19;129493;-41
2023/04/15 09:44:03;;;;;;;69.57;3.60;;;;;;;21.27;57.74;98379.31;7305636;19;129683;-39
2023/04/15 09:46:44;;;;;;;;;;;;;;;21.28;58.36;98373.13;7306128;19;129334;-41
2023/04/15 09:49:11;;;;;;;53.60;3.17;;;;;;;21.17;57.45;98370.84;7305648;19;129622;-42
2023/04/15 09:51:36;;;;;;;63.90;3.35;;;;;;;21.25;57.60;98388.31;7306142;19;129395;-42
2023/04/15 09:54:03;;;;;;;102.57;5.22;;;;;;;21.26;57.67;98390.75;7302737;19;129707;-40
2023/04/15 09:56:40;;;;;;;71.70;3.80;;;;;;;21.29;57.89;98390.41;7301030;19;130188;-42
2023/04/15 09:59:06;;;;;;;;;;;;;;;21.26;58.28;98382.09;7308795;19;130785;-41
2023/04/15 10:01:31;;;;;;;86.97;4.57;;;;;;;21.28;58.04;98394.03;7306258;19;129644;-42
2023/04/15 10:03:58;;;;;;;144.60;7.32;;;;;;;21.27;57.43;98381.91;7301961;19;131631;-40
2023/04/15 10:06:25;;;;;;;138.40;7.28;;;;;;;21.28;57.64;98394.03;7303276;19;129547;-40
2023/04/15 10:08:51;;;;;;;75.45;3.97;;;;;;;21.27;57.61;98397.59;7304374;19;129732;-43
2023/04/15 10:11:18;;;;;;;76.00;4.15;;;;;;;21.25;57.98;98402.22;7306224;19;129278;-42
2023/04/15 10:13:47;;;;;;;80.55;3.95;;;;;;;21.29;57.67;98408.72;7304737;19;130528;-41
2023/04/15 10:16:15;;;;;;;73.05;4.15;;;;;;;21.32;58.13;98408.38;7303014;19;129551;-41
2023/04/15 10:18:46;;;;;;;53.92;2.90;;;;;;;21.46;56.97;98410.31;7303286;19;129850;-41
2023/04/15 10:21:17;;;;;;;84.63;4.50;;;;;;;21.60;57.09;98409.63;7305784;19;130094;-40
2023/04/15 10:23:42;;;;;;;81.78;4.45;;;;;;;21.74;56.88;98414.16;7302808;19;130370;-41
2023/04/15 10:26:11;;;;;;;68.05;3.38;;;;;;;21.82;56.68;98414.16;7303147;19;129532;-37
2023/04/15 10:28:37;;;;;;;47.20;2.60;;;;;;;21.95;56.05;98413.59;7303305;19;129309;-40
2023/04/15 10:31:04;;;;;;;86.68;4.70;;;;;;;22.07;55.86;98411.41;7305257;19;129553;-39
2023/04/15 10:33:30;;;;;;;124.82;6.25;;;;;;;22.16;55.80;98418.25;7301875;19;130700;-41
2023/04/15 10:35:56;;;;;;;87.73;4.43;;;;;;;22.17;55.21;98412.84;7304579;19;129142;-41
2023/04/15 10:38:37;;;;;;;50.73;2.93;;;;;;;22.07;55.81;98406.19;7304903;19;129349;-42
2023/04/15 10:41:25;;;;;;;67.15;3.60;;;;;;;22.08;55.46;98418.31;7305788;19;130274;-39
2023/04/15 10:43:53;;;;;;;56.00;2.95;;;;;;;22.02;55.66;98417.19;7303729;19;129330;-39
2023/04/15 10:46:36;;;;;;;77.72;3.95;;;;;;;21.96;55.92;98417.88;7303672;19;129714;-39
2023/04/15 10:49:09;;;;;;;73.43;3.75;;;;;;;21.86;56.51;98420.69;7303150;19;129758;-40
2023/04/15 10:51:41;;;;;;;67.63;3.63;;;;;;;21.76;56.13;98425.31;7305299;19;130295;-40
2023/04/15 10:54:14;;;;;;;58.45;3.15;;;;;;;21.69;56.51;98429.53;7304173;19;130020;-42
2023/04/15 10:56:50;;;;;;;66.05;3.55;;;;;;;21.62;57.00;98422.53;7304239;19;128871;-39
2023/04/15 10:59:15;;;;;;;43.15;2.53;;;;;;;21.56;56.91;98423.19;7305380;19;128913;-40
2023/04/15 11:01:58;;;;;;;62.05;3.20;;;;;;;21.50;57.54;98435.13;7304515;19;130334;-40
2023/04/15 11:04:53;;;;;;;80.22;4.18;;;;;;;21.44;57.25;98427.16;7301315;19;131293;-36
2023/04/15 11:07:40;;;;;;;66.32;3.42;;;;;;;21.40;58.14;98425.88;7303822;19;129243;-39
2023/04/15 11:10:17;;;;;;;60.67;3.03;;;;;;;21.53;57.71;98439.22;7305890;19;129723;-41
2023/04/15 11:12:57;;;;;;;89.60;4.50;;;;;;;21.65;57.55;98433.47;7303348;19;130174;-41
2023/04/15 11:15:33;;;;;;;129.02;7.13;;;;;;;21.78;56.36;98443.44;7301260;19;129456;-42